sensor_id;sensor_type;location;lat;lon;timestamp;pressure;altitude;pressure_sealevel;temperature;humidity
11672;BME280;5892;43.412;24.612;2022-10-03T00:00:13;99881.59;;;13.87;93.18
11672;BME280;5892;43.412;24.612;2022-10-03T00:05:55;99866.56;;;14.09;92.91
11672;BME280;5892;43.412;24.612;2022-10-03T00:08:36;99863.81;;;14.21;93.36
11672;BME280;5892;43.412;24.612;2022-10-03T00:11:18;99850.97;;;14.13;92.61
11672;BME280;5892;43.412;24.612;2022-10-03T00:13:53;99846.78;;;14.31;92.33
11672;BME280;5892;43.412;24.612;2022-10-03T00:16:36;99852.56;;;14.38;91.17
11672;BME280;5892;43.412;24.612;2022-10-03T00:19:08;99840.03;;;14.40;91.15
11672;BME280;5892;43.412;24.612;2022-10-03T00:21:52;99854.03;;;14.48;91.28
11672;BME280;5892;43.412;24.612;2022-10-03T00:24:30;99851.16;;;14.56;90.30
11672;BME280;5892;43.412;24.612;2022-10-03T00:27:02;99845.53;;;14.40;90.27
11672;BME280;5892;43.412;24.612;2022-10-03T00:29:53;99850.34;;;14.56;90.56
11672;BME280;5892;43.412;24.612;2022-10-03T00:32:44;99844.00;;;14.67;89.99
11672;BME280;5892;43.412;24.612;2022-10-03T00:35:23;99852.84;;;14.73;90.59
11672;BME280;5892;43.412;24.612;2022-10-03T00:38:07;99866.31;;;14.62;90.33
11672;BME280;5892;43.412;24.612;2022-10-03T00:44:12;99870.09;;;14.70;91.55
11672;BME280;5892;43.412;24.612;2022-10-03T00:53:22;99873.19;;;14.56;86.99
11672;BME280;5892;43.412;24.612;2022-10-03T00:56:02;99867.81;;;14.60;86.82
11672;BME280;5892;43.412;24.612;2022-10-03T00:58:49;99870.34;;;14.65;87.11
11672;BME280;5892;43.412;24.612;2022-10-03T01:01:24;99858.19;;;14.81;89.62
11672;BME280;5892;43.412;24.612;2022-10-03T01:04:09;99860.97;;;14.81;91.28
11672;BME280;5892;43.412;24.612;2022-10-03T01:06:45;99865.78;;;14.84;91.74
11672;BME280;5892;43.412;24.612;2022-10-03T01:09:22;99867.84;;;14.88;89.49
11672;BME280;5892;43.412;24.612;2022-10-03T01:12:07;99872.31;;;14.92;89.68
11672;BME280;5892;43.412;24.612;2022-10-03T01:14:59;99864.72;;;15.01;89.76
11672;BME280;5892;43.412;24.612;2022-10-03T01:17:37;99863.69;;;14.94;88.86
11672;BME280;5892;43.412;24.612;2022-10-03T01:20:20;99861.47;;;14.99;89.41
11672;BME280;5892;43.412;24.612;2022-10-03T01:23:14;99870.91;;;14.98;91.32
11672;BME280;5892;43.412;24.612;2022-10-03T01:25:51;99875.75;;;15.01;90.88
11672;BME280;5892;43.412;24.612;2022-10-03T01:28:37;99859.78;;;14.95;91.88
11672;BME280;5892;43.412;24.612;2022-10-03T01:31:28;99868.41;;;14.93;91.61
11672;BME280;5892;43.412;24.612;2022-10-03T01:34:00;99860.59;;;14.95;92.64
11672;BME280;5892;43.412;24.612;2022-10-03T01:36:33;99849.69;;;14.87;92.88
11672;BME280;5892;43.412;24.612;2022-10-03T01:39:12;99853.00;;;14.92;92.14
11672;BME280;5892;43.412;24.612;2022-10-03T01:41:49;99853.47;;;14.94;92.55
11672;BME280;5892;43.412;24.612;2022-10-03T01:44:30;99846.44;;;14.97;90.69
11672;BME280;5892;43.412;24.612;2022-10-03T01:47:16;99836.31;;;15.01;88.85
11672;BME280;5892;43.412;24.612;2022-10-03T01:49:50;99825.41;;;14.92;89.22
11672;BME280;5892;43.412;24.612;2022-10-03T01:52:23;99841.72;;;14.97;89.68
11672;BME280;5892;43.412;24.612;2022-10-03T01:55:07;99842.69;;;14.89;89.32
11672;BME280;5892;43.412;24.612;2022-10-03T01:57:43;99849.22;;;14.97;89.74
11672;BME280;5892;43.412;24.612;2022-10-03T02:00:15;99844.03;;;14.95;89.92
11672;BME280;5892;43.412;24.612;2022-10-03T02:02:47;99836.00;;;14.90;89.96
11672;BME280;5892;43.412;24.612;2022-10-03T02:05:21;99846.44;;;14.97;89.70
11672;BME280;5892;43.412;24.612;2022-10-03T02:07:54;99849.22;;;14.97;87.56
11672;BME280;5892;43.412;24.612;2022-10-03T02:10:30;99852.56;;;14.90;87.89
11672;BME280;5892;43.412;24.612;2022-10-03T02:13:04;99845.09;;;14.91;88.68
11672;BME280;5892;43.412;24.612;2022-10-03T02:15:46;99843.91;;;14.92;87.59
11672;BME280;5892;43.412;24.612;2022-10-03T02:18:23;99842.44;;;14.94;88.62
11672;BME280;5892;43.412;24.612;2022-10-03T02:21:00;99833.81;;;14.96;89.60
11672;BME280;5892;43.412;24.612;2022-10-03T02:23:39;99839.06;;;15.01;89.59
11672;BME280;5892;43.412;24.612;2022-10-03T02:29:48;99827.03;;;14.93;88.37
11672;BME280;5892;43.412;24.612;2022-10-03T02:35:42;99820.13;;;14.87;87.92
11672;BME280;5892;43.412;24.612;2022-10-03T02:38:31;99831.72;;;14.93;88.56
11672;BME280;5892;43.412;24.612;2022-10-03T02:41:38;99843.00;;;14.88;88.62
11672;BME280;5892;43.412;24.612;2022-10-03T02:44:25;99842.59;;;14.73;89.15
11672;BME280;5892;43.412;24.612;2022-10-03T02:53:32;99836.38;;;14.76;89.18
11672;BME280;5892;43.412;24.612;2022-10-03T02:56:33;99835.69;;;14.79;90.23
11672;BME280;5892;43.412;24.612;2022-10-03T02:59:23;99844.78;;;14.80;90.90
11672;BME280;5892;43.412;24.612;2022-10-03T03:02:15;99847.91;;;14.66;91.83
11672;BME280;5892;43.412;24.612;2022-10-03T03:05:28;99834.25;;;14.58;93.24
11672;BME280;5892;43.412;24.612;2022-10-03T03:11:31;99844.34;;;14.66;94.08
11672;BME280;5892;43.412;24.612;2022-10-03T03:14:16;99840.59;;;14.58;94.90
11672;BME280;5892;43.412;24.612;2022-10-03T03:17:00;99845.06;;;14.51;96.09
11672;BME280;5892;43.412;24.612;2022-10-03T03:19:50;99844.72;;;14.52;96.46
11672;BME280;5892;43.412;24.612;2022-10-03T03:22:32;99838.63;;;14.59;96.45
11672;BME280;5892;43.412;24.612;2022-10-03T03:25:11;99835.28;;;14.65;97.16
11672;BME280;5892;43.412;24.612;2022-10-03T03:27:50;99838.88;;;14.54;97.47
11672;BME280;5892;43.412;24.612;2022-10-03T03:30:26;99834.03;;;14.63;95.76
11672;BME280;5892;43.412;24.612;2022-10-03T03:33:04;99834.59;;;14.68;94.40
11672;BME280;5892;43.412;24.612;2022-10-03T03:35:46;99834.34;;;14.73;94.75
11672;BME280;5892;43.412;24.612;2022-10-03T03:38:26;99843.84;;;14.76;94.75
11672;BME280;5892;43.412;24.612;2022-10-03T03:41:04;99828.16;;;14.64;93.25
11672;BME280;5892;43.412;24.612;2022-10-03T03:43:58;99822.78;;;14.56;93.91
11672;BME280;5892;43.412;24.612;2022-10-03T03:46:42;99774.69;;;14.41;95.14
11672;BME280;5892;43.412;24.612;2022-10-03T03:49:28;99819.19;;;14.67;95.62
11672;BME280;5892;43.412;24.612;2022-10-03T03:52:08;99822.03;;;14.71;95.89
11672;BME280;5892;43.412;24.612;2022-10-03T03:55:02;99819.66;;;14.69;95.73
11672;BME280;5892;43.412;24.612;2022-10-03T03:57:52;99814.22;;;14.73;95.75
11672;BME280;5892;43.412;24.612;2022-10-03T04:00:33;99809.19;;;14.63;95.47
11672;BME280;5892;43.412;24.612;2022-10-03T04:03:15;99821.78;;;14.76;94.19
11672;BME280;5892;43.412;24.612;2022-10-03T04:05:57;99827.94;;;14.57;96.84
11672;BME280;5892;43.412;24.612;2022-10-03T04:08:44;99825.19;;;14.57;97.46
11672;BME280;5892;43.412;24.612;2022-10-03T04:11:31;99821.72;;;14.60;98.71
11672;BME280;5892;43.412;24.612;2022-10-03T04:14:27;99821.03;;;14.63;98.89
11672;BME280;5892;43.412;24.612;2022-10-03T04:17:21;99824.59;;;14.64;99.69
11672;BME280;5892;43.412;24.612;2022-10-03T04:20:18;99832.06;;;14.63;98.50
11672;BME280;5892;43.412;24.612;2022-10-03T04:23:11;99822.28;;;14.66;98.37
11672;BME280;5892;43.412;24.612;2022-10-03T04:25:52;99827.31;;;14.76;97.41
11672;BME280;5892;43.412;24.612;2022-10-03T04:28:46;99828.81;;;14.73;97.15
11672;BME280;5892;43.412;24.612;2022-10-03T04:31:37;99838.72;;;14.74;98.54
11672;BME280;5892;43.412;24.612;2022-10-03T04:34:22;99831.47;;;14.70;99.20
11672;BME280;5892;43.412;24.612;2022-10-03T04:37:16;99820.22;;;14.63;100.00
11672;BME280;5892;43.412;24.612;2022-10-03T04:40:00;99822.19;;;14.62;100.00
11672;BME280;5892;43.412;24.612;2022-10-03T04:42:42;99812.88;;;14.67;100.00
11672;BME280;5892;43.412;24.612;2022-10-03T04:45:23;99812.44;;;14.65;100.00
11672;BME280;5892;43.412;24.612;2022-10-03T04:47:58;99827.44;;;14.79;100.00
11672;BME280;5892;43.412;24.612;2022-10-03T04:50:36;99810.41;;;14.77;100.00
11672;BME280;5892;43.412;24.612;2022-10-03T04:53:22;99807.09;;;14.72;100.00
11672;BME280;5892;43.412;24.612;2022-10-03T04:55:55;99820.84;;;14.84;100.00
11672;BME280;5892;43.412;24.612;2022-10-03T04:58:33;99814.44;;;14.80;100.00
11672;BME280;5892;43.412;24.612;2022-10-03T05:01:13;99824.16;;;14.90;99.72
11672;BME280;5892;43.412;24.612;2022-10-03T05:03:46;99815.56;;;14.91;98.74
11672;BME280;5892;43.412;24.612;2022-10-03T05:06:30;99818.41;;;14.95;97.22
11672;BME280;5892;43.412;24.612;2022-10-03T05:09:01;99827.72;;;14.90;97.17
11672;BME280;5892;43.412;24.612;2022-10-03T05:11:44;99817.84;;;14.89;97.38
11672;BME280;5892;43.412;24.612;2022-10-03T05:14:20;99821.66;;;14.84;96.80
11672;BME280;5892;43.412;24.612;2022-10-03T05:16:54;99833.84;;;14.83;96.42
11672;BME280;5892;43.412;24.612;2022-10-03T05:20:00;99844.63;;;14.89;96.03
11672;BME280;5892;43.412;24.612;2022-10-03T05:22:45;99834.81;;;14.75;96.54
11672;BME280;5892;43.412;24.612;2022-10-03T05:25:23;99840.31;;;14.75;96.17
11672;BME280;5892;43.412;24.612;2022-10-03T05:28:03;99808.19;;;14.55;96.81
11672;BME280;5892;43.412;24.612;2022-10-03T05:30:41;99821.50;;;14.65;96.92
11672;BME280;5892;43.412;24.612;2022-10-03T05:33:18;99833.38;;;14.81;97.76
11672;BME280;5892;43.412;24.612;2022-10-03T05:36:03;99823.03;;;14.91;95.92
11672;BME280;5892;43.412;24.612;2022-10-03T05:39:13;99825.00;;;14.78;95.74
11672;BME280;5892;43.412;24.612;2022-10-03T05:41:50;99815.28;;;14.68;95.35
11672;BME280;5892;43.412;24.612;2022-10-03T05:44:24;99829.53;;;14.70;95.74
11672;BME280;5892;43.412;24.612;2022-10-03T05:46:57;99848.03;;;14.98;93.24
11672;BME280;5892;43.412;24.612;2022-10-03T05:49:48;99844.13;;;14.99;93.82
11672;BME280;5892;43.412;24.612;2022-10-03T05:52:48;99842.19;;;14.99;95.28
11672;BME280;5892;43.412;24.612;2022-10-03T05:55:36;99830.97;;;15.08;95.87
11672;BME280;5892;43.412;24.612;2022-10-03T05:58:37;99856.56;;;15.20;94.98
11672;BME280;5892;43.412;24.612;2022-10-03T06:01:23;99854.28;;;15.22;96.42
11672;BME280;5892;43.412;24.612;2022-10-03T06:04:30;99859.72;;;15.35;97.32
11672;BME280;5892;43.412;24.612;2022-10-03T06:07:17;99857.75;;;15.35;99.15
11672;BME280;5892;43.412;24.612;2022-10-03T06:10:02;99851.28;;;15.43;100.00
11672;BME280;5892;43.412;24.612;2022-10-03T06:12:43;99859.56;;;15.43;100.00
11672;BME280;5892;43.412;24.612;2022-10-03T06:15:27;99865.09;;;15.43;100.00
11672;BME280;5892;43.412;24.612;2022-10-03T06:18:03;99874.31;;;15.35;100.00
11672;BME280;5892;43.412;24.612;2022-10-03T06:21:03;99880.44;;;15.28;100.00
11672;BME280;5892;43.412;24.612;2022-10-03T06:27:07;99881.72;;;15.31;100.00
11672;BME280;5892;43.412;24.612;2022-10-03T06:30:00;99899.25;;;15.39;100.00
11672;BME280;5892;43.412;24.612;2022-10-03T06:35:52;99924.00;;;15.35;100.00
11672;BME280;5892;43.412;24.612;2022-10-03T06:44:50;99909.47;;;15.22;100.00
11672;BME280;5892;43.412;24.612;2022-10-03T06:47:34;99906.59;;;15.19;100.00
11672;BME280;5892;43.412;24.612;2022-10-03T06:53:22;99917.56;;;15.03;100.00
11672;BME280;5892;43.412;24.612;2022-10-03T06:56:20;99933.56;;;14.98;100.00
11672;BME280;5892;43.412;24.612;2022-10-03T07:02:12;99893.31;;;14.57;100.00
11672;BME280;5892;43.412;24.612;2022-10-03T07:11:06;99942.81;;;14.77;100.00
11672;BME280;5892;43.412;24.612;2022-10-03T07:14:04;99939.84;;;14.70;100.00
11672;BME280;5892;43.412;24.612;2022-10-03T07:20:00;99929.50;;;14.55;100.00
11672;BME280;5892;43.412;24.612;2022-10-03T07:29:21;99927.22;;;14.57;100.00
11672;BME280;5892;43.412;24.612;2022-10-03T07:32:01;99931.66;;;14.74;100.00
11672;BME280;5892;43.412;24.612;2022-10-03T07:35:01;99937.78;;;15.07;100.00
11672;BME280;5892;43.412;24.612;2022-10-03T07:37:52;99939.47;;;15.24;100.00
11672;BME280;5892;43.412;24.612;2022-10-03T07:41:03;99937.91;;;15.39;100.00
11672;BME280;5892;43.412;24.612;2022-10-03T07:43:56;99941.84;;;15.65;100.00
11672;BME280;5892;43.412;24.612;2022-10-03T07:46:48;99943.13;;;15.84;100.00
11672;BME280;5892;43.412;24.612;2022-10-03T07:49:47;99942.00;;;15.57;100.00
11672;BME280;5892;43.412;24.612;2022-10-03T07:52:41;99950.44;;;15.48;100.00
11672;BME280;5892;43.412;24.612;2022-10-03T07:58:48;99947.00;;;15.11;100.00
11672;BME280;5892;43.412;24.612;2022-10-03T08:01:33;99952.16;;;15.13;100.00
11672;BME280;5892;43.412;24.612;2022-10-03T08:04:28;99947.59;;;15.05;100.00
11672;BME280;5892;43.412;24.612;2022-10-03T08:07:10;99940.09;;;15.05;100.00
11672;BME280;5892;43.412;24.612;2022-10-03T08:10:05;99933.16;;;14.83;100.00
11672;BME280;5892;43.412;24.612;2022-10-03T08:13:07;99917.47;;;15.00;100.00
11672;BME280;5892;43.412;24.612;2022-10-03T08:15:50;99906.53;;;15.03;100.00
11672;BME280;5892;43.412;24.612;2022-10-03T08:18:44;99917.31;;;14.80;100.00
11672;BME280;5892;43.412;24.612;2022-10-03T08:21:20;99899.81;;;14.76;100.00
11672;BME280;5892;43.412;24.612;2022-10-03T08:24:18;99900.75;;;14.68;100.00
11672;BME280;5892;43.412;24.612;2022-10-03T08:27:07;99909.38;;;14.67;100.00
11672;BME280;5892;43.412;24.612;2022-10-03T08:36:02;99918.69;;;14.62;100.00
11672;BME280;5892;43.412;24.612;2022-10-03T08:38:47;99916.59;;;14.83;100.00
11672;BME280;5892;43.412;24.612;2022-10-03T08:41:49;99913.81;;;14.96;100.00
11672;BME280;5892;43.412;24.612;2022-10-03T08:48:07;99908.03;;;15.28;100.00
11672;BME280;5892;43.412;24.612;2022-10-03T08:51:09;99910.59;;;15.49;100.00
11672;BME280;5892;43.412;24.612;2022-10-03T08:57:13;99905.09;;;16.08;100.00
11672;BME280;5892;43.412;24.612;2022-10-03T09:00:07;99897.06;;;16.19;100.00
11672;BME280;5892;43.412;24.612;2022-10-03T09:03:25;99915.69;;;16.38;100.00
11672;BME280;5892;43.412;24.612;2022-10-03T09:06:18;99900.84;;;16.62;100.00
11672;BME280;5892;43.412;24.612;2022-10-03T09:09:18;99900.47;;;16.79;100.00
11672;BME280;5892;43.412;24.612;2022-10-03T09:12:33;99904.97;;;17.06;100.00
11672;BME280;5892;43.412;24.612;2022-10-03T09:15:17;99908.00;;;17.36;100.00
11672;BME280;5892;43.412;24.612;2022-10-03T09:18:19;99899.31;;;17.38;100.00
11672;BME280;5892;43.412;24.612;2022-10-03T09:21:12;99903.69;;;17.58;100.00
11672;BME280;5892;43.412;24.612;2022-10-03T09:24:04;99892.72;;;17.84;100.00
11672;BME280;5892;43.412;24.612;2022-10-03T09:26:57;99874.56;;;17.90;100.00
11672;BME280;5892;43.412;24.612;2022-10-03T09:29:53;99891.34;;;17.97;100.00
11672;BME280;5892;43.412;24.612;2022-10-03T09:35:54;99894.66;;;18.06;100.00
11672;BME280;5892;43.412;24.612;2022-10-03T09:41:41;99878.41;;;18.54;100.00
11672;BME280;5892;43.412;24.612;2022-10-03T09:44:26;99880.22;;;18.99;100.00
11672;BME280;5892;43.412;24.612;2022-10-03T09:47:36;99885.28;;;19.23;100.00
11672;BME280;5892;43.412;24.612;2022-10-03T09:50:35;99868.72;;;19.30;98.94
11672;BME280;5892;43.412;24.612;2022-10-03T09:53:40;99861.88;;;19.24;99.55
11672;BME280;5892;43.412;24.612;2022-10-03T09:56:53;99868.66;;;18.93;100.00
11672;BME280;5892;43.412;24.612;2022-10-03T10:02:51;99853.66;;;19.01;100.00
11672;BME280;5892;43.412;24.612;2022-10-03T10:11:50;99864.31;;;18.96;98.37
11672;BME280;5892;43.412;24.612;2022-10-03T10:14:46;99867.91;;;18.44;99.74
11672;BME280;5892;43.412;24.612;2022-10-03T10:17:52;99851.56;;;18.35;100.00
11672;BME280;5892;43.412;24.612;2022-10-03T10:20:37;99854.75;;;18.63;100.00
11672;BME280;5892;43.412;24.612;2022-10-03T10:23:23;99850.22;;;18.52;100.00
11672;BME280;5892;43.412;24.612;2022-10-03T10:29:29;99867.03;;;18.63;95.90
11672;BME280;5892;43.412;24.612;2022-10-03T10:32:38;99856.22;;;18.84;95.62
11672;BME280;5892;43.412;24.612;2022-10-03T10:38:33;99848.03;;;19.28;92.24
11672;BME280;5892;43.412;24.612;2022-10-03T10:44:50;99823.47;;;19.33;89.11
11672;BME280;5892;43.412;24.612;2022-10-03T10:51:20;99823.56;;;19.77;87.27
11672;BME280;5892;43.412;24.612;2022-10-03T10:57:20;99825.75;;;20.05;84.12
11672;BME280;5892;43.412;24.612;2022-10-03T11:00:10;99840.34;;;19.92;82.85
11672;BME280;5892;43.412;24.612;2022-10-03T11:03:28;99841.72;;;20.15;82.88
11672;BME280;5892;43.412;24.612;2022-10-03T11:06:48;99829.59;;;19.86;78.13
11672;BME280;5892;43.412;24.612;2022-10-03T11:09:48;99826.72;;;19.79;78.89
11672;BME280;5892;43.412;24.612;2022-10-03T11:16:15;99818.72;;;20.22;76.16
11672;BME280;5892;43.412;24.612;2022-10-03T11:34:57;99825.81;;;19.28;77.11
11672;BME280;5892;43.412;24.612;2022-10-03T11:37:42;99804.94;;;19.08;77.47
11672;BME280;5892;43.412;24.612;2022-10-03T11:40:22;99815.63;;;19.05;75.43
11672;BME280;5892;43.412;24.612;2022-10-03T11:45:46;99825.50;;;19.36;74.61
11672;BME280;5892;43.412;24.612;2022-10-03T11:48:32;99817.03;;;19.59;73.36
11672;BME280;5892;43.412;24.612;2022-10-03T11:51:07;99821.53;;;19.74;72.79
11672;BME280;5892;43.412;24.612;2022-10-03T11:53:43;99825.72;;;19.98;70.93
11672;BME280;5892;43.412;24.612;2022-10-03T11:56:21;99827.78;;;20.08;70.51
11672;BME280;5892;43.412;24.612;2022-10-03T12:01:55;99830.44;;;19.94;69.86
11672;BME280;5892;43.412;24.612;2022-10-03T12:04:33;99827.91;;;19.78;68.29
11672;BME280;5892;43.412;24.612;2022-10-03T12:07:08;99838.19;;;19.71;67.16
11672;BME280;5892;43.412;24.612;2022-10-03T12:10:03;99833.06;;;19.76;68.22
11672;BME280;5892;43.412;24.612;2022-10-03T12:12:38;99833.06;;;19.36;66.99
11672;BME280;5892;43.412;24.612;2022-10-03T12:15:28;99843.56;;;19.53;67.27
11672;BME280;5892;43.412;24.612;2022-10-03T12:18:04;99830.13;;;19.59;67.76
11672;BME280;5892;43.412;24.612;2022-10-03T12:20:41;99835.06;;;19.76;67.95
11672;BME280;5892;43.412;24.612;2022-10-03T12:23:20;99830.03;;;19.96;66.51
11672;BME280;5892;43.412;24.612;2022-10-03T12:25:56;99831.59;;;19.89;65.99
11672;BME280;5892;43.412;24.612;2022-10-03T12:28:31;99825.63;;;19.87;62.38
11672;BME280;5892;43.412;24.612;2022-10-03T12:31:05;99833.91;;;19.80;59.86
11672;BME280;5892;43.412;24.612;2022-10-03T12:33:46;99836.78;;;19.95;58.53
11672;BME280;5892;43.412;24.612;2022-10-03T12:36:17;99823.38;;;20.04;59.17
11672;BME280;5892;43.412;24.612;2022-10-03T12:38:58;99829.41;;;20.16;57.76
11672;BME280;5892;43.412;24.612;2022-10-03T12:41:53;99818.84;;;20.36;57.03
11672;BME280;5892;43.412;24.612;2022-10-03T12:44:34;99834.09;;;20.56;57.24
11672;BME280;5892;43.412;24.612;2022-10-03T12:47:19;99821.78;;;20.61;53.86
11672;BME280;5892;43.412;24.612;2022-10-03T12:49:54;99823.13;;;20.88;51.82
11672;BME280;5892;43.412;24.612;2022-10-03T12:52:26;99810.38;;;20.87;49.26
11672;BME280;5892;43.412;24.612;2022-10-03T12:55:13;99806.38;;;20.85;50.30
11672;BME280;5892;43.412;24.612;2022-10-03T12:57:53;99807.25;;;21.06;50.29
11672;BME280;5892;43.412;24.612;2022-10-03T13:00:25;99817.50;;;20.78;51.44
11672;BME280;5892;43.412;24.612;2022-10-03T13:03:14;99823.78;;;20.60;51.77
11672;BME280;5892;43.412;24.612;2022-10-03T13:06:16;99820.47;;;20.41;52.90
11672;BME280;5892;43.412;24.612;2022-10-03T13:08:56;99803.28;;;20.28;52.69
11672;BME280;5892;43.412;24.612;2022-10-03T13:11:31;99807.56;;;20.15;51.69
11672;BME280;5892;43.412;24.612;2022-10-03T13:14:13;99791.38;;;20.31;51.69
11672;BME280;5892;43.412;24.612;2022-10-03T13:16:52;99806.91;;;20.32;50.65
11672;BME280;5892;43.412;24.612;2022-10-03T13:19:27;99811.69;;;20.35;50.89
11672;BME280;5892;43.412;24.612;2022-10-03T13:22:02;99818.72;;;20.22;51.38
11672;BME280;5892;43.412;24.612;2022-10-03T13:24:37;99794.34;;;20.01;52.23
11672;BME280;5892;43.412;24.612;2022-10-03T13:27:16;99820.63;;;20.11;52.10
11672;BME280;5892;43.412;24.612;2022-10-03T13:29:53;99815.19;;;20.25;51.95
11672;BME280;5892;43.412;24.612;2022-10-03T13:32:30;99803.19;;;20.17;50.11
11672;BME280;5892;43.412;24.612;2022-10-03T13:35:02;99815.56;;;20.23;51.55
11672;BME280;5892;43.412;24.612;2022-10-03T13:38:03;99833.91;;;20.32;50.74
11672;BME280;5892;43.412;24.612;2022-10-03T13:40:35;99824.34;;;20.29;50.28
11672;BME280;5892;43.412;24.612;2022-10-03T13:43:09;99828.16;;;20.10;50.78
11672;BME280;5892;43.412;24.612;2022-10-03T13:45:42;99826.44;;;19.92;51.50
11672;BME280;5892;43.412;24.612;2022-10-03T13:48:13;99789.66;;;19.61;52.47
11672;BME280;5892;43.412;24.612;2022-10-03T13:50:48;99824.00;;;19.83;51.81
11672;BME280;5892;43.412;24.612;2022-10-03T13:53:49;99820.00;;;19.80;49.51
11672;BME280;5892;43.412;24.612;2022-10-03T13:56:31;99810.50;;;19.85;49.74
11672;BME280;5892;43.412;24.612;2022-10-03T13:59:08;99813.69;;;19.83;50.35
11672;BME280;5892;43.412;24.612;2022-10-03T14:01:50;99828.06;;;19.93;50.23
11672;BME280;5892;43.412;24.612;2022-10-03T14:07:41;99822.25;;;20.15;49.31
11672;BME280;5892;43.412;24.612;2022-10-03T14:10:22;99760.78;;;19.76;48.78
11672;BME280;5892;43.412;24.612;2022-10-03T14:13:03;99827.88;;;20.26;50.22
11672;BME280;5892;43.412;24.612;2022-10-03T14:15:43;99827.50;;;20.24;47.98
11672;BME280;5892;43.412;24.612;2022-10-03T14:18:22;99832.59;;;20.15;48.33
11672;BME280;5892;43.412;24.612;2022-10-03T14:21:34;99826.47;;;19.95;49.25
11672;BME280;5892;43.412;24.612;2022-10-03T14:24:13;99826.50;;;19.99;49.50
11672;BME280;5892;43.412;24.612;2022-10-03T14:26:51;99836.03;;;19.98;49.63
11672;BME280;5892;43.412;24.612;2022-10-03T14:29:25;99822.50;;;19.93;48.97
11672;BME280;5892;43.412;24.612;2022-10-03T14:31:59;99822.66;;;19.66;48.58
11672;BME280;5892;43.412;24.612;2022-10-03T14:34:44;99829.91;;;19.78;48.01
11672;BME280;5892;43.412;24.612;2022-10-03T14:37:21;99828.75;;;19.82;49.06
11672;BME280;5892;43.412;24.612;2022-10-03T14:39:58;99827.50;;;19.76;49.55
11672;BME280;5892;43.412;24.612;2022-10-03T14:42:57;99819.88;;;19.66;49.21
11672;BME280;5892;43.412;24.612;2022-10-03T14:45:32;99826.84;;;19.46;49.38
11672;BME280;5892;43.412;24.612;2022-10-03T14:48:06;99815.91;;;19.30;50.05
11672;BME280;5892;43.412;24.612;2022-10-03T14:50:38;99813.25;;;19.04;51.65
11672;BME280;5892;43.412;24.612;2022-10-03T14:53:08;99822.78;;;19.07;52.88
11672;BME280;5892;43.412;24.612;2022-10-03T14:55:44;99827.38;;;18.92;53.76
11672;BME280;5892;43.412;24.612;2022-10-03T14:58:16;99830.84;;;18.85;53.98
11672;BME280;5892;43.412;24.612;2022-10-03T15:00:46;99819.56;;;18.71;54.13
11672;BME280;5892;43.412;24.612;2022-10-03T15:03:21;99831.34;;;18.61;54.52
11672;BME280;5892;43.412;24.612;2022-10-03T15:06:16;99843.16;;;18.58;53.91
11672;BME280;5892;43.412;24.612;2022-10-03T15:08:46;99838.97;;;18.41;54.13
11672;BME280;5892;43.412;24.612;2022-10-03T15:11:16;99837.72;;;18.39;54.18
11672;BME280;5892;43.412;24.612;2022-10-03T15:13:52;99852.13;;;18.21;54.53
11672;BME280;5892;43.412;24.612;2022-10-03T15:16:21;99855.97;;;18.13;55.07
11672;BME280;5892;43.412;24.612;2022-10-03T15:18:51;99867.31;;;18.05;55.63
11672;BME280;5892;43.412;24.612;2022-10-03T15:21:20;99867.13;;;17.94;55.63
11672;BME280;5892;43.412;24.612;2022-10-03T15:23:53;99870.28;;;17.93;56.03
11672;BME280;5892;43.412;24.612;2022-10-03T15:26:22;99872.88;;;17.82;56.64
11672;BME280;5892;43.412;24.612;2022-10-03T15:28:53;99873.91;;;17.74;57.21
11672;BME280;5892;43.412;24.612;2022-10-03T15:31:31;99863.06;;;17.65;57.86
11672;BME280;5892;43.412;24.612;2022-10-03T15:33:59;99875.69;;;17.63;59.08
11672;BME280;5892;43.412;24.612;2022-10-03T15:36:31;99877.13;;;17.57;59.10
11672;BME280;5892;43.412;24.612;2022-10-03T15:39:04;99881.31;;;17.47;59.10
11672;BME280;5892;43.412;24.612;2022-10-03T15:41:34;99873.22;;;17.38;59.48
11672;BME280;5892;43.412;24.612;2022-10-03T15:44:05;99878.25;;;17.33;59.44
11672;BME280;5892;43.412;24.612;2022-10-03T15:46:41;99868.25;;;17.28;60.23
11672;BME280;5892;43.412;24.612;2022-10-03T15:49:17;99872.78;;;17.17;60.18
11672;BME280;5892;43.412;24.612;2022-10-03T15:51:47;99869.09;;;17.10;60.90
11672;BME280;5892;43.412;24.612;2022-10-03T15:54:18;99873.09;;;17.12;61.05
11672;BME280;5892;43.412;24.612;2022-10-03T15:56:49;99865.66;;;16.97;61.69
11672;BME280;5892;43.412;24.612;2022-10-03T15:59:20;99851.59;;;16.67;62.08
11672;BME280;5892;43.412;24.612;2022-10-03T16:01:49;99872.41;;;16.80;63.11
11672;BME280;5892;43.412;24.612;2022-10-03T16:04:23;99876.38;;;16.79;64.00
11672;BME280;5892;43.412;24.612;2022-10-03T16:06:58;99875.41;;;16.72;64.13
11672;BME280;5892;43.412;24.612;2022-10-03T16:09:30;99874.94;;;16.70;64.18
11672;BME280;5892;43.412;24.612;2022-10-03T16:12:21;99884.16;;;16.58;65.09
11672;BME280;5892;43.412;24.612;2022-10-03T16:15:13;99879.47;;;16.43;64.87
11672;BME280;5892;43.412;24.612;2022-10-03T16:17:47;99888.38;;;16.52;65.55
11672;BME280;5892;43.412;24.612;2022-10-03T16:20:19;99898.09;;;16.46;65.40
11672;BME280;5892;43.412;24.612;2022-10-03T16:22:51;99895.53;;;16.37;65.78
11672;BME280;5892;43.412;24.612;2022-10-03T16:25:22;99907.69;;;16.33;66.19
11672;BME280;5892;43.412;24.612;2022-10-03T16:27:53;99902.38;;;16.28;65.93
11672;BME280;5892;43.412;24.612;2022-10-03T16:30:25;99911.94;;;16.15;66.55
11672;BME280;5892;43.412;24.612;2022-10-03T16:33:01;99915.88;;;16.14;66.98
11672;BME280;5892;43.412;24.612;2022-10-03T16:35:32;99918.97;;;16.12;66.87
11672;BME280;5892;43.412;24.612;2022-10-03T16:38:05;99909.00;;;16.07;66.87
11672;BME280;5892;43.412;24.612;2022-10-03T16:40:34;99915.59;;;16.03;67.22
11672;BME280;5892;43.412;24.612;2022-10-03T16:43:03;99884.84;;;15.89;66.94